Time;durP1;ratioP1;P1;durP2;ratioP2;P2;SDS_P1;SDS_P2;PMS_P1;PMS_P2;Temp;Humidity;BMP_temperature;BMP_pressure;BME280_temperature;BME280_humidity;BME280_pressure;Samples;Min_cycle;Max_cycle;Signal;HPM_P1;HPM_P2
2021/09/29 00:00:43;;;;;;;6.03;2.55;;;;;;;13.63;81.86;101641.03;4944952;28;20051;-83
2021/09/29 00:29:12;;;;;;;;;;;;;;;;;;;;;
2021/09/29 00:32:25;;;;;;;9.18;3.05;;;;;;;13.18;83.90;101589.13;4848331;29;20042;-82
2021/09/29 00:39:38;;;;;;;5.75;3.35;;;;;;;13.05;84.70;101581.00;4871082;29;20366;-83
2021/09/29 00:42:49;;;;;;;8.02;3.35;;;;;;;13.05;84.80;101577.44;4954367;28;20051;-82
2021/09/29 00:53:08;;;;;;;;;;;;;;;;;;;;;
2021/09/29 01:04:21;;;;;;;9.13;3.15;;;;;;;12.91;84.97;101546.38;4985720;28;20084;-83
2021/09/29 01:07:31;;;;;;;8.13;2.83;;;;;;;12.97;84.72;101542.97;4953089;28;20130;-83
2021/09/29 01:10:54;;;;;;;;;;;;;;;;;;;;;
2021/09/29 01:17:38;;;;;;;9.50;2.75;;;;;;;12.94;85.26;101522.69;4894558;29;20036;-82
2021/09/29 01:24:07;;;;;;;8.55;3.28;;;;;;;12.96;85.14;101512.13;5007634;28;20038;-82
2021/09/29 01:31:04;;;;;;;;;;;;;;;;;;;;;
2021/09/29 01:34:35;;;;;;;9.60;3.42;;;;;;;13.04;84.55;101493.78;5006701;28;20116;-83
2021/09/29 01:37:58;;;;;;;7.57;3.03;;;;;;;13.10;84.27;101491.22;5006656;28;20053;-80
2021/09/29 01:41:51;;;;;;;8.00;3.03;;;;;;;13.14;84.14;101493.06;4945732;28;20047;-82
2021/09/29 01:52:27;;;;;;;7.43;3.28;;;;;;;13.23;84.40;101465.91;4891087;29;20072;-84
2021/09/29 02:00:00;;;;;;;;;;;;;;;;;;;;;
2021/09/29 02:06:39;;;;;;;8.13;3.10;;;;;;;13.07;84.63;101452.44;4910874;28;20042;-82
2021/09/29 02:20:36;;;;;;;8.10;3.43;;;;;;;13.07;83.69;101431.28;4967109;28;20034;-82
2021/09/29 02:24:05;;;;;;;7.95;3.15;;;;;;;13.06;84.54;101432.19;4971460;28;20050;-82
2021/09/29 02:38:18;;;;;;;6.63;3.03;;;;;;;13.16;83.45;101414.72;5024694;28;20391;-83
2021/09/29 02:45:16;;;;;;;;;;;;;;;;;;;;;
2021/09/29 02:52:23;;;;;;;;;;;;;;;;;;;;;
2021/09/29 02:59:08;;;;;;;9.40;3.60;;;;;;;13.09;83.99;101421.66;4941943;28;20154;-83
2021/09/29 06:04:43;;;;;;;;;;;;;;;;;;;;;
2021/09/29 06:14:20;;;;;;;8.63;3.17;;;;;;;12.57;94.05;101317.81;4880453;29;20043;-81
2021/09/29 06:18:23;;;;;;;;;;;;;;;;;;;;;
2021/09/29 06:21:09;;;;;;;;;;;;;;;;;;;;;
2021/09/29 06:34:49;;;;;;;9.98;2.58;;;;;;;12.64;93.97;101335.53;4651566;30;20043;-83
2021/09/29 06:37:20;;;;;;;6.75;2.35;;;;;;;12.64;94.01;101341.72;4696517;29;20141;-79
2021/09/29 06:39:49;;;;;;;6.00;2.03;;;;;;;12.67;93.75;101346.16;4885785;28;20596;-78
2021/09/29 06:42:15;;;;;;;9.95;3.33;;;;;;;12.68;94.12;101349.69;4983921;28;20624;-77
2021/09/29 06:44:40;;;;;;;8.38;2.50;;;;;;;12.68;94.39;101352.31;4968195;28;20045;-81
2021/09/29 06:47:17;;;;;;;9.02;2.47;;;;;;;12.69;94.68;101349.69;4960964;28;20113;-82
2021/09/29 06:49:42;;;;;;;11.57;2.38;;;;;;;12.70;94.72;101362.03;4995814;28;20430;-80
2021/09/29 06:52:13;;;;;;;6.15;2.10;;;;;;;12.70;94.68;101354.13;5034215;28;20022;-81
2021/09/29 06:55:04;;;;;;;4.93;2.55;;;;;;;12.69;95.20;101360.25;5048312;28;20049;-81
2021/09/29 06:58:11;;;;;;;4.85;2.10;;;;;;;12.73;95.27;101356.81;5050190;28;20029;-81
2021/09/29 07:00:35;;;;;;;3.28;1.90;;;;;;;12.67;95.52;101361.09;5048154;28;20385;-76
2021/09/29 07:03:25;;;;;;;9.05;1.90;;;;;;;12.62;96.70;101363.66;5032876;28;20082;-81
2021/09/29 07:05:59;;;;;;;4.50;1.50;;;;;;;12.53;96.89;101363.50;5033670;28;20447;-79
2021/09/29 07:08:24;;;;;;;7.45;2.17;;;;;;;12.46;97.73;101366.03;5044199;28;20025;-78
2021/09/29 07:10:54;;;;;;;8.90;1.60;;;;;;;12.38;99.17;101377.34;5040780;28;20556;-82
2021/09/29 07:13:25;;;;;;;8.68;1.60;;;;;;;12.34;99.60;101381.66;5020750;28;20042;-77
2021/09/29 07:15:51;;;;;;;7.68;1.50;;;;;;;12.27;100.00;101383.28;5032526;28;20028;-84
2021/09/29 07:21:37;;;;;;;6.35;1.80;;;;;;;12.17;100.00;101396.28;5031103;28;20041;-82
2021/09/29 07:24:25;;;;;;;6.15;2.08;;;;;;;12.08;100.00;101403.16;5038983;28;20025;-80
2021/09/29 07:27:11;;;;;;;4.25;1.77;;;;;;;12.04;100.00;101417.16;5038243;28;20025;-79
2021/09/29 07:29:43;;;;;;;6.35;2.25;;;;;;;11.98;100.00;101417.06;5025412;28;20120;-80
2021/09/29 07:32:14;;;;;;;7.05;2.42;;;;;;;11.97;100.00;101425.81;5037128;28;20033;-83
2021/09/29 07:34:49;;;;;;;4.95;2.15;;;;;;;11.93;100.00;101416.03;5029952;28;20025;-80
2021/09/29 07:40:45;;;;;;;5.13;2.05;;;;;;;11.81;100.00;101420.22;5013534;28;20065;-81
2021/09/29 07:43:10;;;;;;;7.25;2.20;;;;;;;11.75;100.00;101424.47;5029549;28;20550;-81
2021/09/29 07:45:37;;;;;;;3.95;1.67;;;;;;;11.71;100.00;101412.94;5034772;28;20395;-81
2021/09/29 07:48:03;;;;;;;6.40;1.70;;;;;;;11.63;100.00;101404.88;5024717;28;20476;-80
2021/09/29 07:50:28;;;;;;;3.88;1.63;;;;;;;11.57;100.00;101403.84;5032441;28;20162;-80
2021/09/29 07:52:54;;;;;;;5.10;1.63;;;;;;;11.51;100.00;101401.09;5028130;28;20454;-79
2021/09/29 07:55:20;;;;;;;6.32;1.60;;;;;;;11.46;100.00;101400.97;5027631;28;20666;-82
2021/09/29 07:57:51;;;;;;;2.67;1.67;;;;;;;11.44;100.00;101400.06;5030112;28;20352;-81
2021/09/29 08:00:18;;;;;;;6.35;2.20;;;;;;;11.45;100.00;101410.66;5030182;28;20065;-79
2021/09/29 08:02:44;;;;;;;2.63;1.67;;;;;;;11.43;100.00;101422.88;5035560;28;20033;-78
2021/09/29 08:05:14;;;;;;;5.07;1.90;;;;;;;11.39;100.00;101428.94;5033585;28;20032;-79
2021/09/29 08:07:49;;;;;;;4.45;1.15;;;;;;;11.40;100.00;101430.72;5035906;28;20033;-81
2021/09/29 08:10:15;;;;;;;2.88;1.48;;;;;;;11.36;100.00;101433.28;5034659;28;20119;-79
2021/09/29 08:12:40;;;;;;;5.30;1.60;;;;;;;11.29;100.00;101421.69;5035303;28;20170;-82
2021/09/29 08:15:12;;;;;;;5.28;1.60;;;;;;;11.33;100.00;101420.91;5036050;28;20060;-80
2021/09/29 08:17:55;;;;;;;6.95;1.70;;;;;;;11.30;100.00;101427.00;5038223;28;20059;-82
2021/09/29 08:20:41;;;;;;;3.38;1.77;;;;;;;11.29;100.00;101426.97;5034742;28;20041;-81
2021/09/29 08:23:12;;;;;;;6.63;1.90;;;;;;;11.31;100.00;101427.88;5035265;28;20036;-81
2021/09/29 08:28:40;;;;;;;3.78;1.65;;;;;;;11.33;100.00;101402.47;5035368;28;20114;-81
2021/09/29 08:34:14;;;;;;;5.65;2.22;;;;;;;11.37;100.00;101421.88;5034923;28;20545;-79
2021/09/29 09:16:30;;;;;;;;;;;;;;;;;;;;;
2021/09/29 09:20:05;;;;;;;5.40;1.77;;;;;;;11.70;100.00;101461.25;4994352;28;20040;-83
2021/09/29 10:26:23;;;;;;;5.63;1.20;;;;;;;12.85;94.43;101519.88;5001371;28;20065;-82
2021/09/29 11:31:29;;;;;;;5.53;0.80;;;;;;;15.73;66.44;101552.59;5032002;28;20040;-84
2021/09/29 11:39:52;;;;;;;1.95;0.68;;;;;;;16.19;65.57;101582.94;5045309;28;20059;-85
2021/09/29 12:08:10;;;;;;;3.38;0.47;;;;;;;19.25;50.26;101587.16;5048859;28;20055;-80
2021/09/29 12:10:37;;;;;;;3.58;0.82;;;;;;;18.94;51.10;101594.47;5045723;28;20447;-78
2021/09/29 12:13:07;;;;;;;2.35;1.00;;;;;;;18.17;54.54;101607.19;5045658;28;20071;-79
2021/09/29 12:15:45;;;;;;;4.13;1.02;;;;;;;17.39;56.21;101608.16;5041270;28;20041;-84
2021/09/29 12:18:14;;;;;;;3.63;1.00;;;;;;;16.84;59.54;101620.41;5046050;28;20044;-79
2021/09/29 12:20:54;;;;;;;5.72;0.95;;;;;;;16.63;60.12;101631.88;5047166;28;20382;-80
2021/09/29 12:23:20;;;;;;;3.92;0.90;;;;;;;17.51;58.69;101637.44;5043494;28;20506;-80
2021/09/29 12:26:03;;;;;;;8.57;1.63;;;;;;;17.64;55.96;101624.13;5052441;28;20064;-79
2021/09/29 12:36:29;;;;;;;6.72;1.42;;;;;;;17.94;55.86;101636.53;5045824;28;20041;-82
2021/09/29 12:39:38;;;;;;;3.83;0.85;;;;;;;18.48;55.55;101656.88;5048714;28;20036;-82
2021/09/29 12:42:05;;;;;;;7.43;0.93;;;;;;;18.24;54.20;101641.84;5047786;28;20494;-79
2021/09/29 12:44:30;;;;;;;4.68;0.90;;;;;;;18.23;53.28;101635.63;5050616;28;20103;-81
2021/09/29 12:47:37;;;;;;;5.70;0.80;;;;;;;18.76;53.91;101641.66;5048777;28;20080;-80
2021/09/29 12:50:33;;;;;;;6.30;0.90;;;;;;;18.99;52.30;101643.31;5048883;28;20036;-81
2021/09/29 12:56:18;;;;;;;8.73;0.90;;;;;;;19.28;49.26;101650.28;5045945;28;20407;-79
2021/09/29 12:58:44;;;;;;;7.80;0.77;;;;;;;18.59;49.39;101654.16;5046820;28;20076;-79
2021/09/29 13:01:10;;;;;;;3.30;0.82;;;;;;;18.22;51.63;101654.25;5051230;28;20037;-81
2021/09/29 13:03:36;;;;;;;5.47;0.60;;;;;;;18.24;52.37;101660.47;5052735;28;20036;-77
2021/09/29 13:06:01;;;;;;;3.63;1.13;;;;;;;18.42;51.47;101672.84;5053106;28;20569;-76
2021/09/29 13:08:29;;;;;;;3.88;0.98;;;;;;;18.44;50.99;101649.78;5049826;28;20033;-77
2021/09/29 13:10:56;;;;;;;4.22;0.70;;;;;;;18.79;50.90;101667.41;5045652;28;20116;-79
2021/09/29 13:13:22;;;;;;;2.20;0.60;;;;;;;18.53;50.75;101655.06;5048918;28;20024;-76
2021/09/29 13:15:52;;;;;;;3.20;0.75;;;;;;;18.46;51.19;101653.31;5068293;28;20028;-75
2021/09/29 13:21:03;;;;;;;6.40;0.85;;;;;;;16.83;55.39;101685.13;5045419;28;20029;-75
2021/09/29 13:23:36;;;;;;;6.00;0.80;;;;;;;16.92;54.60;101691.38;5047501;28;20029;-79
2021/09/29 13:37:32;;;;;;;3.25;0.85;;;;;;;16.61;53.25;101726.63;5042804;28;20638;-78
2021/09/29 13:39:57;;;;;;;2.58;0.60;;;;;;;16.70;52.67;101720.50;5021482;28;20120;-80
2021/09/29 13:42:23;;;;;;;5.40;0.60;;;;;;;17.34;51.19;101735.84;5051231;28;20133;-76
2021/09/29 13:44:50;;;;;;;3.83;0.63;;;;;;;17.89;49.56;101715.50;5042089;28;20402;-80
2021/09/29 13:47:15;;;;;;;3.28;0.80;;;;;;;17.87;50.39;101728.81;5046189;28;20056;-77
2021/09/29 13:49:40;;;;;;;3.70;0.70;;;;;;;18.31;50.02;101734.16;5051588;28;20056;-83
2021/09/29 13:52:17;;;;;;;3.33;0.75;;;;;;;18.37;49.61;101744.84;5042540;28;20024;-80
2021/09/29 13:54:43;;;;;;;5.00;0.70;;;;;;;18.33;50.05;101732.41;5045709;28;20087;-78
2021/09/29 14:32:24;;;;;;;5.72;1.35;;;;;;;15.71;56.94;101794.03;5053734;28;20037;-78
2021/09/29 14:34:50;;;;;;;3.45;1.00;;;;;;;15.25;61.94;101826.22;5055253;28;20509;-76
2021/09/29 14:37:15;;;;;;;5.97;1.17;;;;;;;14.76;66.23;101850.25;5036877;28;20109;-81
2021/09/29 14:39:45;;;;;;;9.45;1.00;;;;;;;14.57;64.57;101833.16;5048780;28;20124;-79
2021/09/29 14:42:11;;;;;;;3.10;0.73;;;;;;;14.42;63.91;101849.69;5052076;28;20029;-80
2021/09/29 14:44:51;;;;;;;4.03;0.70;;;;;;;14.30;60.51;101829.19;5049307;28;20025;-82
2021/09/29 14:47:17;;;;;;;3.45;0.77;;;;;;;14.22;60.12;101822.88;5049888;28;20037;-77
2021/09/29 14:49:44;;;;;;;5.72;0.73;;;;;;;13.97;58.27;101817.16;5053689;28;20040;-79
2021/09/29 14:52:11;;;;;;;1.67;0.60;;;;;;;13.86;59.13;101820.44;5050230;28;20116;-82
2021/09/29 14:54:37;;;;;;;1.80;0.57;;;;;;;14.05;61.20;101826.97;5047885;28;20147;-77
2021/09/29 14:57:09;;;;;;;7.57;0.80;;;;;;;14.25;58.58;101820.25;5049263;28;20163;-78
2021/09/29 14:59:36;;;;;;;4.40;0.85;;;;;;;14.18;60.95;101825.44;5045300;28;20091;-79
2021/09/29 15:02:01;;;;;;;4.25;1.25;;;;;;;14.19;59.84;101824.56;5042827;28;20430;-75
2021/09/29 15:04:27;;;;;;;3.45;0.60;;;;;;;14.18;60.62;101828.97;5048992;28;20053;-78
2021/09/29 15:06:52;;;;;;;3.13;0.93;;;;;;;14.18;61.08;101838.69;5045183;28;20394;-77
2021/09/29 15:09:17;;;;;;;4.40;0.80;;;;;;;14.32;61.37;101838.06;5046150;28;20044;-80
2021/09/29 15:11:43;;;;;;;5.85;0.70;;;;;;;14.47;61.03;101848.00;5048015;28;20020;-79
2021/09/29 15:14:12;;;;;;;4.82;0.63;;;;;;;14.54;61.68;101851.66;5049214;28;20071;-80
2021/09/29 15:22:07;;;;;;;5.70;1.05;;;;;;;14.67;61.98;101872.19;5047949;28;20072;-79
2021/09/29 15:29:43;;;;;;;5.53;0.80;;;;;;;14.83;60.10;101868.03;5046134;28;20411;-83
2021/09/29 15:48:35;;;;;;;5.43;1.27;;;;;;;12.92;66.70;101931.22;5053738;28;19920;-80
2021/09/29 15:51:14;;;;;;;5.82;0.93;;;;;;;12.93;67.07;101940.94;5050654;28;20029;-76
2021/09/29 16:02:15;;;;;;;9.45;1.17;;;;;;;12.81;67.03;101946.78;5035171;28;20041;-81
2021/09/29 16:11:16;;;;;;;6.45;1.17;;;;;;;13.15;65.51;101925.59;5038097;28;20063;-83
2021/09/29 16:30:55;;;;;;;4.75;0.63;;;;;;;12.86;65.06;101967.16;4980290;28;20047;-77
2021/09/29 16:35:52;;;;;;;4.63;0.70;;;;;;;12.74;65.93;101975.69;5047913;28;20072;-77
2021/09/29 16:38:58;;;;;;;5.50;1.00;;;;;;;12.73;66.78;101979.16;5050652;28;20056;-78
2021/09/29 16:41:23;;;;;;;4.45;1.00;;;;;;;12.77;67.45;101981.03;5050300;28;20147;-80
2021/09/29 16:43:49;;;;;;;6.00;1.00;;;;;;;12.81;68.99;101990.81;5050773;28;20146;-78
2021/09/29 16:46:19;;;;;;;10.52;1.08;;;;;;;12.90;68.80;101996.34;5043649;28;20037;-78
2021/09/29 16:48:44;;;;;;;8.20;1.33;;;;;;;12.92;69.17;102001.66;5049994;28;20037;-78
2021/09/29 16:53:56;;;;;;;5.53;0.98;;;;;;;12.93;70.04;102020.19;5051273;28;20040;-79
2021/09/29 16:56:22;;;;;;;4.53;0.88;;;;;;;12.99;69.69;102035.31;5039344;28;20032;-81
2021/09/29 16:59:00;;;;;;;5.45;1.02;;;;;;;12.99;69.95;102045.88;5044932;28;20041;-78
2021/09/29 17:01:29;;;;;;;7.07;1.17;;;;;;;12.92;68.98;102044.81;5049447;28;20024;-79
2021/09/29 17:03:56;;;;;;;6.32;0.98;;;;;;;12.79;69.10;102038.31;5040824;28;20024;-78
2021/09/29 17:06:42;;;;;;;3.63;0.68;;;;;;;12.67;69.30;102048.56;5048281;28;20120;-79
2021/09/29 17:09:07;;;;;;;8.93;1.60;;;;;;;12.62;70.78;102063.38;5044370;28;20025;-77
2021/09/29 17:11:33;;;;;;;10.07;1.23;;;;;;;12.57;72.15;102072.91;5046945;28;20037;-77
2021/09/29 17:13:58;;;;;;;7.78;1.58;;;;;;;12.44;72.52;102075.22;5045762;28;20506;-77
2021/09/29 17:16:28;;;;;;;9.88;1.88;;;;;;;12.44;71.48;102088.41;5045970;28;20041;-78
2021/09/29 17:18:55;;;;;;;5.97;1.17;;;;;;;12.46;70.91;102097.25;5048802;28;20036;-78
2021/09/29 17:21:42;;;;;;;7.75;1.30;;;;;;;12.23;73.80;102104.50;5045988;28;20029;-77
2021/09/29 17:24:28;;;;;;;7.15;1.80;;;;;;;11.74;75.49;102101.19;5048210;28;20039;-80
2021/09/29 17:26:54;;;;;;;4.63;1.17;;;;;;;11.50;77.27;102103.03;5047583;28;20075;-79
2021/09/29 17:29:21;;;;;;;4.35;1.10;;;;;;;11.38;78.52;102093.91;5046847;28;20057;-77
2021/09/29 17:31:57;;;;;;;6.07;1.10;;;;;;;11.38;78.17;102098.25;5043243;28;20368;-78
2021/09/29 17:53:31;;;;;;;;;;;;;;;11.23;77.05;102133.81;5007776;28;20543;-80
2021/09/29 17:55:56;;;;;;;7.47;0.77;;;;;;;11.25;77.21;102139.13;5022845;28;19913;-79
2021/09/29 17:58:22;;;;;;;5.00;0.95;;;;;;;11.28;76.87;102140.09;5044827;28;20072;-78
2021/09/29 18:00:49;;;;;;;7.22;0.90;;;;;;;11.32;76.76;102130.56;5047635;28;20063;-81
2021/09/29 18:03:23;;;;;;;12.48;1.05;;;;;;;11.38;76.75;102133.44;5044450;28;20049;-78
2021/09/29 18:05:59;;;;;;;7.72;1.00;;;;;;;11.43;76.91;102142.38;5047020;28;20017;-81
2021/09/29 18:08:24;;;;;;;4.75;0.85;;;;;;;11.47;77.60;102141.63;5048776;28;20441;-81
2021/09/29 18:10:50;;;;;;;10.90;1.15;;;;;;;11.55;76.28;102130.47;5050096;28;20025;-80
2021/09/29 18:13:15;;;;;;;4.45;1.00;;;;;;;11.67;75.99;102143.16;5043972;28;20128;-78
2021/09/29 18:15:44;;;;;;;9.20;1.30;;;;;;;11.76;75.83;102152.25;5046449;28;20130;-80
2021/09/29 18:18:29;;;;;;;5.93;1.15;;;;;;;11.87;75.87;102164.88;5044646;28;20420;-79
2021/09/29 18:20:54;;;;;;;5.25;1.10;;;;;;;11.97;75.62;102167.91;5052381;28;20024;-79
2021/09/29 18:23:20;;;;;;;1.63;0.45;;;;;;;12.03;73.62;102174.22;5040213;28;20033;-81
2021/09/29 18:25:45;;;;;;;4.13;0.70;;;;;;;12.09;71.87;102180.59;5041589;28;20467;-78
2021/09/29 18:28:11;;;;;;;6.30;1.10;;;;;;;12.01;74.47;102187.38;5046951;28;20021;-78
2021/09/29 18:30:45;;;;;;;4.75;0.95;;;;;;;11.90;75.14;102196.66;5042340;28;20036;-81
2021/09/29 18:33:18;;;;;;;4.88;1.08;;;;;;;11.79;76.21;102207.75;5051379;28;20487;-79
2021/09/29 18:35:45;;;;;;;8.82;1.45;;;;;;;11.75;76.98;102211.13;5035321;28;20045;-81
2021/09/29 18:38:14;;;;;;;14.20;1.60;;;;;;;11.77;77.85;102205.88;5049801;28;20033;-82
2021/09/29 18:40:41;;;;;;;6.70;1.05;;;;;;;11.78;78.69;102210.31;5047766;28;20044;-79
2021/09/29 18:43:09;;;;;;;10.13;1.00;;;;;;;11.79;79.55;102228.84;5048112;28;20044;-79
2021/09/29 18:45:35;;;;;;;6.93;0.98;;;;;;;11.84;79.27;102228.97;5051767;28;20119;-78
2021/09/29 18:48:20;;;;;;;8.18;1.35;;;;;;;11.84;77.53;102220.19;5054493;28;20800;-80
2021/09/29 18:50:46;;;;;;;4.35;1.00;;;;;;;11.76;79.33;102225.19;5052490;28;20510;-80
2021/09/29 18:53:12;;;;;;;3.42;0.75;;;;;;;11.64;80.77;102230.97;5045363;28;20025;-78
2021/09/29 18:55:41;;;;;;;7.47;0.85;;;;;;;11.47;80.38;102235.63;5046097;28;20104;-83
2021/09/29 19:04:05;;;;;;;7.50;0.73;;;;;;;11.17;79.80;102241.59;5047033;28;20411;-83
2021/09/29 19:09:17;;;;;;;3.22;0.50;;;;;;;11.05;80.41;102247.28;5045990;28;20036;-81
2021/09/29 19:11:42;;;;;;;7.00;1.08;;;;;;;10.93;83.11;102254.75;5049902;28;20025;-80
2021/09/29 19:14:08;;;;;;;5.90;0.90;;;;;;;10.82;83.91;102256.97;5040471;28;20496;-80
2021/09/29 19:16:37;;;;;;;2.55;0.55;;;;;;;10.72;83.97;102268.88;5045348;28;20028;-80
2021/09/29 19:19:18;;;;;;;6.47;1.02;;;;;;;10.66;84.52;102262.47;5051762;28;20029;-82
2021/09/29 19:21:44;;;;;;;5.53;1.05;;;;;;;10.61;85.37;102276.38;5048442;28;20056;-85
2021/09/29 19:24:10;;;;;;;4.03;1.00;;;;;;;10.52;86.58;102281.25;5045264;28;20025;-81
2021/09/29 19:26:36;;;;;;;5.32;0.80;;;;;;;10.57;86.39;102292.00;5049777;28;20151;-83
2021/09/29 19:29:04;;;;;;;5.10;0.90;;;;;;;10.53;86.76;102287.44;5048527;28;20083;-80
2021/09/29 19:31:30;;;;;;;9.15;1.30;;;;;;;10.52;87.83;102296.16;5046655;28;20064;-81
2021/09/29 19:33:58;;;;;;;3.60;1.00;;;;;;;10.49;88.73;102296.94;5045752;28;20066;-82
2021/09/29 19:36:27;;;;;;;6.47;1.10;;;;;;;10.45;87.91;102298.53;5047647;28;20032;-77
2021/09/29 19:38:56;;;;;;;4.50;1.35;;;;;;;10.40;86.93;102286.91;5049317;28;20053;-80
2021/09/29 19:41:23;;;;;;;5.78;0.98;;;;;;;10.37;86.49;102271.00;5046311;28;20033;-83
2021/09/29 19:43:52;;;;;;;10.93;1.73;;;;;;;10.30;86.50;102274.22;5053694;28;20125;-81
2021/09/29 19:46:27;;;;;;;3.50;1.00;;;;;;;10.31;85.81;102273.38;5048836;28;20021;-80
2021/09/29 20:08:08;;;;;;;2.80;0.90;;;;;;;10.20;87.43;102286.09;5046680;28;19969;-83
2021/09/29 20:10:34;;;;;;;4.55;1.30;;;;;;;10.23;87.15;102287.97;5049393;28;20029;-83
2021/09/29 20:13:00;;;;;;;4.82;1.25;;;;;;;10.27;88.36;102300.41;5046407;28;20024;-80
2021/09/29 20:15:45;;;;;;;7.43;1.20;;;;;;;10.29;88.85;102296.09;5047963;28;20473;-81
2021/09/29 20:18:12;;;;;;;3.58;1.13;;;;;;;10.26;89.26;102310.00;5050009;28;20033;-80
2021/09/29 20:20:37;;;;;;;8.98;1.40;;;;;;;10.26;88.24;102307.38;5052250;28;20027;-80
2021/09/29 20:23:07;;;;;;;6.25;1.75;;;;;;;10.31;88.57;102310.22;5050970;28;20032;-80
2021/09/29 20:25:33;;;;;;;5.60;1.00;;;;;;;10.37;88.47;102318.38;5027979;28;20044;-83
2021/09/29 20:27:59;;;;;;;7.60;0.90;;;;;;;10.50;86.62;102305.72;5049977;28;20040;-80
2021/09/29 20:30:25;;;;;;;4.93;1.25;;;;;;;10.61;85.85;102301.81;5049971;28;20132;-79
2021/09/29 20:32:54;;;;;;;4.93;1.50;;;;;;;10.75;83.62;102307.59;5046300;28;20021;-80
2021/09/29 20:43:29;;;;;;;2.33;0.80;;;;;;;10.93;81.77;102304.78;5051636;28;20402;-78
2021/09/29 20:46:11;;;;;;;7.72;1.17;;;;;;;10.92;82.05;102309.16;5047958;28;20029;-81
2021/09/29 20:48:36;;;;;;;3.90;1.08;;;;;;;10.94;82.22;102317.13;5044811;28;20025;-80
2021/09/29 20:51:03;;;;;;;4.10;1.02;;;;;;;10.92;82.07;102314.44;5045691;28;20031;-81
2021/09/29 20:53:31;;;;;;;5.60;1.65;;;;;;;10.97;82.12;102311.97;5050269;28;20036;-78
2021/09/29 20:55:57;;;;;;;5.40;1.05;;;;;;;11.04;82.25;102318.38;5039613;28;20102;-79
2021/09/29 20:58:22;;;;;;;7.93;1.15;;;;;;;11.08;81.89;102321.19;5045767;28;20484;-79
2021/09/29 21:00:49;;;;;;;10.45;1.80;;;;;;;11.19;81.84;102324.25;5046063;28;20117;-78
2021/09/29 21:03:34;;;;;;;7.70;1.15;;;;;;;11.38;80.82;102330.19;5046804;28;20025;-78
2021/09/29 21:06:00;;;;;;;5.55;1.20;;;;;;;11.40;81.26;102336.41;5048392;28;20087;-79
2021/09/29 21:08:31;;;;;;;9.38;1.85;;;;;;;11.44;80.50;102339.22;5044914;28;20021;-80
2021/09/29 21:11:02;;;;;;;3.65;0.98;;;;;;;11.46;80.24;102340.19;5047582;28;21258;-77
2021/09/29 21:13:33;;;;;;;2.85;0.70;;;;;;;11.57;76.18;102315.94;5030101;28;20052;-78
2021/09/29 21:16:15;;;;;;;5.43;1.30;;;;;;;11.57;77.10;102322.13;5043663;28;20037;-78
2021/09/29 21:18:41;;;;;;;6.55;0.95;;;;;;;11.61;75.48;102323.09;5045524;28;20017;-80
2021/09/29 21:21:07;;;;;;;6.45;0.98;;;;;;;11.58;76.20;102317.72;5043608;28;20044;-79
2021/09/29 21:23:32;;;;;;;3.58;0.80;;;;;;;11.52;75.86;102320.16;5045144;28;20037;-76
2021/09/29 21:25:58;;;;;;;8.73;0.90;;;;;;;11.42;76.58;102327.72;5043642;28;20120;-76
2021/09/29 21:28:24;;;;;;;4.25;0.93;;;;;;;11.36;77.20;102327.50;5044346;28;20111;-77
2021/09/29 21:30:54;;;;;;;4.82;0.77;;;;;;;11.23;77.73;102330.50;5045208;28;20425;-81
2021/09/29 21:33:41;;;;;;;8.98;1.00;;;;;;;11.17;78.42;102339.06;5043141;28;20028;-79
2021/09/29 21:36:32;;;;;;;4.28;0.90;;;;;;;11.13;79.30;102335.41;5053989;28;20436;-78
2021/09/29 21:39:24;;;;;;;11.65;1.38;;;;;;;11.01;80.52;102356.03;5042436;28;20043;-76
2021/09/29 21:41:57;;;;;;;7.63;1.10;;;;;;;10.98;81.00;102355.91;5048573;28;20120;-77
2021/09/29 21:47:11;;;;;;;8.27;0.85;;;;;;;10.94;82.06;102364.53;5049693;28;20029;-75
2021/09/29 22:03:27;;;;;;;6.30;0.98;;;;;;;11.17;82.98;102398.78;5048217;28;19916;-76
2021/09/29 23:05:58;;;;;;;6.00;0.88;;;;;;;10.72;79.62;102411.06;5030526;28;20044;-80
2021/09/29 23:08:41;;;;;;;4.82;0.80;;;;;;;10.63;79.82;102416.84;5052908;28;20017;-79
2021/09/29 23:14:03;;;;;;;6.20;0.95;;;;;;;10.51;80.56;102415.44;5050758;28;20109;-78
2021/09/29 23:33:07;;;;;;;3.00;0.90;;;;;;;10.05;85.07;102436.25;5049619;28;20499;-77
2021/09/29 23:35:33;;;;;;;5.47;1.10;;;;;;;9.98;86.31;102439.44;5052602;28;20143;-82
2021/09/29 23:37:58;;;;;;;4.60;1.00;;;;;;;9.92;87.06;102442.69;5053339;28;20028;-80
2021/09/29 23:40:27;;;;;;;5.15;1.45;;;;;;;9.86;87.26;102439.81;5054929;28;20467;-81
2021/09/29 23:42:55;;;;;;;6.00;1.58;;;;;;;9.84;87.49;102448.44;5054007;28;20029;-78
2021/09/29 23:45:21;;;;;;;7.40;1.63;;;;;;;9.84;88.75;102446.72;5051772;28;20037;-82
2021/09/29 23:47:47;;;;;;;4.70;1.25;;;;;;;9.92;87.93;102454.94;5052687;28;20104;-79
2021/09/29 23:50:15;;;;;;;9.88;1.55;;;;;;;10.07;86.88;102455.63;5035642;28;20128;-80
2021/09/29 23:52:44;;;;;;;7.40;1.35;;;;;;;10.21;85.77;102442.19;5052878;28;20462;-82
2021/09/29 23:55:15;;;;;;;5.75;1.38;;;;;;;10.42;84.39;102443.16;5049097;28;20554;-81
2021/09/29 23:57:40;;;;;;;9.43;1.60;;;;;;;10.63;82.68;102447.53;5043707;28;20041;-80
